createdAt,value
2022-09-06T01:03:44.859Z,13.80
2022-09-06T01:05:14.858Z,10.75
2022-09-06T01:06:48.608Z,11.10
2022-09-06T01:08:15.897Z,9.07
2022-09-06T01:09:47.422Z,8.37
2022-09-06T01:11:40.910Z,9.18
2022-09-06T01:13:22.886Z,13.05
2022-09-06T01:15:02.005Z,9.10
2022-09-06T01:16:46.883Z,7.80
2022-09-06T01:18:05.005Z,7.45
2022-09-06T01:19:48.965Z,8.57
2022-09-06T01:21:28.918Z,9.55
2022-09-06T01:23:04.876Z,8.32
2022-09-06T01:24:56.955Z,8.15
2022-09-06T01:26:56.233Z,7.77
2022-09-06T01:28:52.919Z,7.28
2022-09-06T01:30:24.931Z,9.88
2022-09-06T01:31:50.792Z,7.60
2022-09-06T01:33:23.960Z,6.85
2022-09-06T01:34:39.724Z,10.23
2022-09-06T01:36:01.096Z,7.97
2022-09-06T01:37:20.976Z,8.45
2022-09-06T01:38:50.933Z,7.38
2022-09-06T01:40:07.491Z,8.45
2022-09-06T01:41:29.001Z,8.97
2022-09-06T01:42:39.232Z,10.35
2022-09-06T01:44:03.944Z,9.88
2022-09-06T01:45:16.090Z,7.55
2022-09-06T01:46:49.968Z,7.07
2022-09-06T01:48:16.546Z,6.70
2022-09-06T01:49:53.977Z,6.95
2022-09-06T01:51:15.564Z,8.85
2022-09-06T01:53:04.972Z,6.60
2022-09-06T01:54:43.024Z,8.25
2022-09-06T01:56:05.167Z,7.80
2022-09-06T01:57:57.002Z,7.55
2022-09-06T01:59:36.159Z,6.95
2022-09-06T02:01:10.048Z,7.00
2022-09-06T02:02:37.226Z,7.53
2022-09-06T02:04:45.078Z,7.00
2022-09-06T02:06:19.068Z,7.38
2022-09-06T02:07:51.056Z,7.55
2022-09-06T02:09:30.021Z,8.63
2022-09-06T02:10:56.597Z,8.07
2022-09-06T02:12:20.027Z,8.50
2022-09-06T02:13:44.648Z,6.78
2022-09-06T02:15:12.257Z,8.60
2022-09-06T02:16:25.587Z,11.25
2022-09-06T02:17:46.071Z,8.40
2022-09-06T02:19:17.111Z,8.50
2022-09-06T02:20:51.041Z,8.32
2022-09-06T02:22:24.073Z,8.23
2022-09-06T02:23:42.423Z,8.18
2022-09-06T02:25:07.048Z,10.15
2022-09-06T02:26:23.504Z,8.23
2022-09-06T02:27:47.121Z,9.48
2022-09-06T02:28:56.555Z,8.48
2022-09-06T02:30:22.164Z,10.23
2022-09-06T02:31:50.073Z,9.43
2022-09-06T02:33:11.175Z,8.65
2022-09-06T02:34:21.251Z,8.32
2022-09-06T02:35:37.090Z,7.80
2022-09-06T02:36:46.211Z,9.93
2022-09-06T02:37:56.440Z,9.43
2022-09-06T02:39:12.171Z,7.33
2022-09-06T02:40:21.251Z,7.05
2022-09-06T02:41:44.121Z,8.50
2022-09-06T02:42:54.311Z,9.40
2022-09-06T02:44:16.930Z,9.30
2022-09-06T02:45:25.348Z,8.75
2022-09-06T02:46:48.980Z,8.52
2022-09-06T02:47:59.727Z,7.43
2022-09-06T02:49:22.118Z,7.47
2022-09-06T02:50:32.451Z,9.15
2022-09-06T02:51:54.129Z,8.93
2022-09-06T02:53:18.257Z,8.80
2022-09-06T02:54:40.115Z,7.72
2022-09-06T02:55:49.315Z,9.35
2022-09-06T02:57:11.223Z,10.45
2022-09-06T02:58:26.286Z,8.95
2022-09-06T02:59:34.847Z,8.10
2022-09-06T03:00:51.171Z,8.52
2022-09-06T03:02:00.306Z,8.65
2022-09-06T03:03:23.211Z,7.95
2022-09-06T03:04:32.987Z,7.87
2022-09-06T03:05:57.925Z,8.18
2022-09-06T03:07:09.797Z,8.05
2022-09-06T03:08:33.867Z,8.73
2022-09-06T03:09:43.326Z,9.38
2022-09-06T03:11:06.212Z,8.25
2022-09-06T03:12:15.316Z,9.07
2022-09-06T03:13:37.175Z,7.10
2022-09-06T03:14:54.975Z,8.65
2022-09-06T03:16:24.351Z,9.55
2022-09-06T03:17:54.210Z,9.17
2022-09-06T03:19:09.949Z,10.48
2022-09-06T03:20:36.846Z,8.65
2022-09-06T03:21:45.846Z,7.60
2022-09-06T03:23:07.206Z,7.43
2022-09-06T03:24:15.970Z,7.70
2022-09-06T03:25:38.275Z,8.25
2022-09-06T03:26:46.884Z,7.03
2022-09-06T03:28:08.266Z,8.23
2022-09-06T03:29:16.978Z,7.50
2022-09-06T03:30:39.244Z,7.83
2022-09-06T03:31:54.211Z,9.55
2022-09-06T03:33:09.371Z,9.10
2022-09-06T03:34:17.939Z,9.10
2022-09-06T03:35:33.317Z,7.93
2022-09-06T03:36:42.360Z,9.45
2022-09-06T03:37:50.917Z,8.00
2022-09-06T03:39:05.319Z,10.05
2022-09-06T03:40:21.291Z,8.48
2022-09-06T03:41:45.219Z,9.63
2022-09-06T03:43:00.403Z,14.13
2022-09-06T03:44:08.962Z,11.20
2022-09-06T03:45:24.292Z,9.80
2022-09-06T03:46:33.424Z,8.48
2022-09-06T03:47:55.351Z,9.57
2022-09-06T03:49:05.566Z,8.20
2022-09-06T03:50:27.297Z,10.63
2022-09-06T03:51:43.278Z,10.85
2022-09-06T03:53:12.332Z,8.82
2022-09-06T03:54:29.237Z,9.07
2022-09-06T03:55:52.358Z,10.03
2022-09-06T03:57:01.023Z,8.38
2022-09-06T03:58:16.440Z,10.13
2022-09-06T03:59:31.330Z,7.80
2022-09-06T04:01:00.339Z,8.60
2022-09-06T04:02:16.060Z,8.15
2022-09-06T04:03:38.334Z,7.93
2022-09-06T04:04:53.313Z,12.93
2022-09-06T04:06:09.464Z,9.07
2022-09-06T04:07:25.660Z,8.38
2022-09-06T04:08:52.530Z,9.97
2022-09-06T04:10:02.226Z,10.50
2022-09-06T04:11:26.031Z,10.35
2022-09-06T04:12:37.135Z,12.52
2022-09-06T04:14:02.077Z,8.52
2022-09-06T04:15:32.461Z,9.43
2022-09-06T04:17:03.151Z,10.57
2022-09-06T04:18:19.973Z,9.00
2022-09-06T04:19:41.325Z,10.75
2022-09-06T04:21:11.369Z,9.25
2022-09-06T04:22:40.408Z,10.50
2022-09-06T04:23:56.135Z,9.35
2022-09-06T04:25:20.361Z,10.93
2022-09-06T04:26:29.129Z,10.95
2022-09-06T04:27:51.424Z,8.43
2022-09-06T04:29:00.361Z,9.77
2022-09-06T04:30:23.405Z,10.07
2022-09-06T04:31:32.186Z,11.05
2022-09-06T04:32:54.579Z,10.55
2022-09-06T04:34:03.388Z,13.20
2022-09-06T04:35:25.575Z,9.20
2022-09-06T04:36:34.553Z,9.70
2022-09-06T04:37:57.572Z,10.02
2022-09-06T04:39:06.411Z,11.02
2022-09-06T04:40:28.682Z,9.30
2022-09-06T04:41:37.553Z,12.50
2022-09-06T04:42:53.927Z,12.75
2022-09-06T04:44:09.643Z,11.38
2022-09-06T04:45:18.213Z,13.68
2022-09-06T04:46:44.469Z,10.00
2022-09-06T04:47:59.482Z,8.70
2022-09-06T04:49:15.788Z,8.38
2022-09-06T04:50:38.615Z,9.85
2022-09-06T04:51:47.729Z,11.13
2022-09-06T04:53:03.255Z,8.95
2022-09-06T04:54:19.448Z,8.80
2022-09-06T04:55:37.585Z,10.98
2022-09-06T04:57:06.436Z,11.45
2022-09-06T04:58:22.424Z,14.93
2022-09-06T04:59:38.009Z,9.52
2022-09-06T05:00:54.493Z,10.40
2022-09-06T05:02:10.857Z,12.30
2022-09-06T05:03:25.705Z,10.48
2022-09-06T05:04:40.426Z,9.25
2022-09-06T05:06:02.453Z,10.38
2022-09-06T05:07:13.000Z,9.13
2022-09-06T05:08:29.689Z,12.55
2022-09-06T05:09:48.699Z,10.35
2022-09-06T05:11:07.244Z,12.07
2022-09-06T05:12:24.746Z,9.73
2022-09-06T05:13:50.890Z,9.13
2022-09-06T05:15:02.331Z,10.52
2022-09-06T05:16:26.478Z,10.13
2022-09-06T05:17:43.682Z,8.43
2022-09-06T05:19:00.847Z,10.60
2022-09-06T05:20:19.338Z,12.07
2022-09-06T05:21:29.841Z,10.75
2022-09-06T05:23:02.305Z,10.05
2022-09-06T05:24:13.095Z,9.00
2022-09-06T05:25:38.301Z,11.30
2022-09-06T05:26:56.267Z,7.63
2022-09-06T05:28:15.060Z,9.07
2022-09-06T05:29:32.617Z,10.23
2022-09-06T05:30:43.912Z,9.80
2022-09-06T05:32:07.596Z,10.93
2022-09-06T05:33:17.806Z,9.15
2022-09-06T05:34:39.574Z,9.77
2022-09-06T05:35:48.874Z,10.80
2022-09-06T05:37:04.409Z,9.93
2022-09-06T05:38:19.596Z,10.88
2022-09-06T05:39:34.707Z,13.07
2022-09-06T05:40:50.585Z,9.10
2022-09-06T05:42:08.561Z,10.15
2022-09-06T05:43:17.325Z,12.50
2022-09-06T05:44:32.555Z,8.48
2022-09-06T05:45:47.795Z,12.10
2022-09-06T05:47:04.067Z,9.35
2022-09-06T05:48:18.616Z,9.77
2022-09-06T05:49:27.783Z,9.15
2022-09-06T05:50:49.541Z,10.55
2022-09-06T05:51:58.671Z,12.40
2022-09-06T05:53:20.590Z,10.88
2022-09-06T05:54:29.746Z,11.75
2022-09-06T05:55:52.572Z,10.05
2022-09-06T05:57:02.652Z,12.70
2022-09-06T05:58:24.623Z,9.73
2022-09-06T05:59:33.869Z,12.27
2022-09-06T06:00:55.703Z,9.20
2022-09-06T06:02:07.505Z,13.48
2022-09-06T06:03:29.614Z,9.10
2022-09-06T06:04:38.782Z,10.47
2022-09-06T06:06:00.632Z,10.25
2022-09-06T06:07:15.790Z,11.52
2022-09-06T06:08:37.912Z,14.73
2022-09-06T06:09:49.427Z,13.10
2022-09-06T06:11:11.607Z,12.05
2022-09-06T06:12:19.774Z,12.48
2022-09-06T06:13:45.642Z,13.45
2022-09-06T06:14:54.802Z,22.30
2022-09-06T06:16:22.740Z,23.52
2022-09-06T06:17:31.809Z,21.83
2022-09-06T06:18:53.663Z,24.65
2022-09-06T06:20:01.880Z,20.88
2022-09-06T06:21:27.710Z,16.77
2022-09-06T06:22:36.799Z,14.10
2022-09-06T06:24:02.621Z,14.82
2022-09-06T06:25:22.445Z,13.80
2022-09-06T06:26:40.697Z,11.50
2022-09-06T06:27:55.837Z,11.43
2022-09-06T06:29:14.737Z,14.85
2022-09-06T06:30:29.955Z,12.03
2022-09-06T06:31:45.832Z,13.18
2022-09-06T06:33:02.248Z,12.13
2022-09-06T06:34:11.487Z,12.00
2022-09-06T06:35:26.703Z,10.73
2022-09-06T06:36:35.913Z,13.40
2022-09-06T06:37:57.790Z,13.95
2022-09-06T06:39:14.714Z,11.07
2022-09-06T06:40:43.774Z,11.02
2022-09-06T06:42:05.752Z,11.25
2022-09-06T06:43:37.850Z,10.00
2022-09-06T06:44:52.704Z,11.77
2022-09-06T06:46:08.900Z,10.82
2022-09-06T06:47:30.814Z,12.40
2022-09-06T06:48:52.706Z,11.02
2022-09-06T06:50:23.778Z,14.45
2022-09-06T06:51:52.719Z,10.95
2022-09-06T06:53:14.772Z,11.10
2022-09-06T06:54:23.916Z,10.98
2022-09-06T06:55:45.894Z,11.27
2022-09-06T06:56:54.975Z,11.80
2022-09-06T06:58:10.665Z,9.85
2022-09-06T06:59:26.809Z,8.90
2022-09-06T07:00:35.982Z,12.63
2022-09-06T07:01:46.225Z,11.38
2022-09-06T07:03:02.756Z,9.10
2022-09-06T07:04:20.819Z,9.68
2022-09-06T07:07:36.694Z,8.90
2022-09-06T07:08:54.882Z,8.95
2022-09-06T07:11:48.799Z,10.93
2022-09-06T07:12:57.927Z,11.02
2022-09-06T07:14:19.790Z,9.38
2022-09-06T07:15:28.940Z,10.10
2022-09-06T07:16:51.864Z,10.02
2022-09-06T07:18:04.026Z,9.65
2022-09-06T07:22:51.827Z,8.10
2022-09-06T07:24:08.879Z,11.10
2022-09-06T07:25:30.826Z,10.90
2022-09-06T07:28:35.580Z,8.20
2022-09-06T07:29:57.928Z,11.05
2022-09-06T07:33:17.894Z,11.95
2022-09-06T07:34:43.911Z,9.63
2022-09-06T07:36:03.024Z,10.60
2022-09-06T07:37:24.914Z,10.23
2022-09-06T07:38:35.069Z,10.60
2022-09-06T07:40:08.193Z,8.05
2022-09-06T07:41:39.299Z,8.98
2022-09-06T07:43:01.608Z,9.90
2022-09-06T07:44:23.899Z,11.50
2022-09-06T07:45:32.881Z,8.60
2022-09-06T07:46:48.259Z,9.52
2022-09-06T07:48:06.883Z,8.07
2022-09-06T07:49:36.301Z,11.32
2022-09-06T07:51:04.938Z,8.00
2022-09-06T07:54:13.253Z,7.05
2022-09-06T07:55:39.867Z,8.20
2022-09-06T07:56:48.077Z,8.15
2022-09-06T07:58:09.920Z,7.88
2022-09-06T07:59:19.280Z,6.72
2022-09-06T08:00:41.119Z,9.82
2022-09-06T08:01:50.524Z,7.15
2022-09-06T08:03:11.960Z,7.65
2022-09-06T08:04:28.949Z,6.35
2022-09-06T08:06:13.215Z,6.37
2022-09-06T08:07:42.017Z,7.60
2022-09-06T08:08:59.217Z,7.80
2022-09-06T08:10:23.078Z,6.97
2022-09-06T08:11:33.372Z,9.65
2022-09-06T08:12:54.968Z,8.10
2022-09-06T08:14:17.977Z,5.88
2022-09-06T08:15:30.173Z,7.43
2022-09-06T08:16:52.006Z,6.88
2022-09-06T08:18:07.072Z,7.68
2022-09-06T08:19:23.204Z,7.23
2022-09-06T08:20:40.367Z,7.15
2022-09-06T08:21:48.711Z,7.97
2022-09-06T08:23:05.026Z,8.30
2022-09-06T08:24:15.154Z,6.88
2022-09-06T08:25:36.965Z,8.93
2022-09-06T08:26:47.210Z,8.30
2022-09-06T08:28:11.044Z,6.47
2022-09-06T08:29:21.129Z,7.85
2022-09-06T08:30:43.028Z,6.88
2022-09-06T08:31:52.193Z,8.07
2022-09-06T08:33:14.017Z,8.20
2022-09-06T08:34:30.008Z,7.82
2022-09-06T08:36:09.097Z,6.90
2022-09-06T08:37:25.254Z,5.75
2022-09-06T08:38:48.022Z,6.15
2022-09-06T08:40:03.156Z,7.28
2022-09-06T08:41:30.469Z,7.03
2022-09-06T08:42:52.023Z,8.48
2022-09-06T08:46:03.127Z,5.10
2022-09-06T08:47:20.219Z,6.10
2022-09-06T08:48:46.110Z,6.68
2022-09-06T08:49:58.236Z,7.35
2022-09-06T08:51:45.575Z,7.90
2022-09-06T08:53:16.236Z,7.80
2022-09-06T08:54:40.784Z,7.15
2022-09-06T08:56:04.471Z,9.60
2022-09-06T08:57:15.296Z,5.60
2022-09-06T08:58:39.865Z,5.85
2022-09-06T08:59:44.020Z,8.40
2022-09-06T09:00:58.713Z,6.55
2022-09-06T09:02:18.158Z,8.43
2022-09-06T09:03:45.281Z,6.10
2022-09-06T09:05:20.215Z,7.65
2022-09-06T09:06:36.037Z,7.95
2022-09-06T09:08:16.189Z,6.10
2022-09-06T09:09:49.132Z,6.07
2022-09-06T09:11:18.695Z,7.45
2022-09-06T09:12:39.095Z,6.85
2022-09-06T09:13:47.822Z,6.90
2022-09-06T09:15:19.157Z,7.28
2022-09-06T09:16:34.223Z,8.27
2022-09-06T09:17:51.267Z,6.57
2022-09-06T09:19:02.754Z,7.78
2022-09-06T09:20:18.124Z,7.20
2022-09-06T09:21:30.898Z,6.47
2022-09-06T09:22:49.161Z,6.28
2022-09-06T09:24:08.308Z,7.28
2022-09-06T09:25:21.783Z,8.02
2022-09-06T09:26:54.231Z,7.27
2022-09-06T09:28:03.393Z,7.07
2022-09-06T09:29:29.469Z,8.98
2022-09-06T09:31:00.352Z,7.35
2022-09-06T09:32:46.176Z,8.57
2022-09-06T09:34:04.756Z,6.68
2022-09-06T09:35:34.233Z,6.75
2022-09-06T09:38:31.326Z,8.02
2022-09-06T09:39:50.289Z,9.88
2022-09-06T09:41:12.224Z,6.43
2022-09-06T09:42:46.202Z,6.28
2022-09-06T09:44:21.503Z,5.55
2022-09-06T09:45:45.221Z,5.95
2022-09-06T09:46:54.060Z,6.45
2022-09-06T09:48:41.350Z,8.30
2022-09-06T09:49:49.943Z,8.75
2022-09-06T09:51:27.444Z,7.25
2022-09-06T09:52:50.234Z,6.80
2022-09-06T09:54:08.239Z,6.30
2022-09-06T09:55:31.397Z,8.63
2022-09-06T09:56:54.212Z,7.70
2022-09-06T09:58:10.285Z,6.40
2022-09-06T09:59:28.414Z,6.68
2022-09-06T10:00:40.313Z,6.47
2022-09-06T10:01:56.321Z,6.05
2022-09-06T10:03:05.502Z,7.82
2022-09-06T10:04:43.826Z,5.32
2022-09-06T10:06:04.639Z,5.57
2022-09-06T10:07:32.355Z,11.20
2022-09-06T10:08:47.276Z,7.47
2022-09-06T10:10:19.387Z,5.45
2022-09-06T10:12:00.441Z,6.20
2022-09-06T10:13:26.763Z,8.25
2022-09-06T10:14:54.302Z,5.90
2022-09-06T10:16:04.540Z,10.07
2022-09-06T10:17:29.978Z,6.85
2022-09-06T10:18:50.352Z,7.40
2022-09-06T10:19:59.789Z,7.50
2022-09-06T10:21:26.392Z,7.35
2022-09-06T10:22:48.952Z,6.87
2022-09-06T10:24:41.333Z,6.65
2022-09-06T10:25:53.585Z,6.15
2022-09-06T10:27:15.460Z,7.82
2022-09-06T10:28:44.413Z,6.18
2022-09-06T10:30:14.365Z,8.77
2022-09-06T10:31:45.572Z,6.53
2022-09-06T10:33:16.540Z,5.55
2022-09-06T10:34:52.598Z,6.75
2022-09-06T10:36:14.480Z,5.55
2022-09-06T10:37:43.645Z,7.40
2022-09-06T10:39:21.177Z,7.25
2022-09-06T10:40:46.379Z,6.60
2022-09-06T10:42:25.432Z,6.35
2022-09-06T10:44:00.438Z,6.78
2022-09-06T10:45:20.875Z,6.28
2022-09-06T10:46:47.436Z,7.40
2022-09-06T10:47:55.468Z,7.20
2022-09-06T10:48:58.308Z,6.65
2022-09-06T10:50:03.108Z,6.55
2022-09-06T10:51:44.173Z,7.90
2022-09-06T10:52:48.240Z,5.05
2022-09-06T10:53:59.387Z,5.93
2022-09-06T10:55:05.418Z,6.15
2022-09-06T10:56:13.099Z,5.78
2022-09-06T11:00:14.764Z,7.85
2022-09-06T11:01:39.387Z,7.95
2022-09-06T11:04:27.628Z,5.33
2022-09-06T11:05:41.011Z,6.38
2022-09-06T11:06:52.873Z,7.55
2022-09-06T11:09:46.307Z,5.97
2022-09-06T11:10:51.324Z,6.65
2022-09-06T11:12:05.882Z,6.00
2022-09-06T11:13:28.408Z,7.53
2022-09-06T11:14:31.100Z,6.50
2022-09-06T11:16:02.620Z,7.50
2022-09-06T11:17:29.073Z,5.20
2022-09-06T11:18:43.026Z,8.55
2022-09-06T11:20:29.934Z,7.00
2022-09-06T11:22:01.006Z,6.38
2022-09-06T11:23:06.890Z,6.00
2022-09-06T11:24:12.001Z,5.28
2022-09-06T11:25:37.856Z,5.60
2022-09-06T11:27:14.068Z,5.78
2022-09-06T11:28:26.866Z,4.93
2022-09-06T11:29:32.781Z,5.15
2022-09-06T11:30:50.988Z,6.73
2022-09-06T11:33:30.497Z,5.78
2022-09-06T11:34:40.927Z,7.68
2022-09-06T11:35:46.377Z,6.65
2022-09-06T11:37:15.106Z,5.07
2022-09-06T11:38:17.237Z,7.32
2022-09-06T11:41:16.824Z,8.50
2022-09-06T11:43:04.179Z,5.93
2022-09-06T11:45:44.458Z,5.82
2022-09-06T11:46:48.617Z,5.68
2022-09-06T11:47:54.761Z,5.70
2022-09-06T11:49:10.203Z,5.32
2022-09-06T11:50:22.364Z,7.13
2022-09-06T11:51:35.273Z,6.20
2022-09-06T11:52:56.747Z,5.80
2022-09-06T11:53:59.479Z,6.32
2022-09-06T11:55:04.330Z,7.35
2022-09-06T11:56:09.902Z,6.07
2022-09-06T11:57:23.057Z,5.93
2022-09-06T11:58:45.487Z,6.22
2022-09-06T11:59:51.525Z,6.32
2022-09-06T12:01:12.829Z,5.18
2022-09-06T12:02:38.531Z,5.00
2022-09-06T12:05:10.830Z,7.63
2022-09-06T12:06:25.006Z,5.30
2022-09-06T12:07:29.348Z,6.72
2022-09-06T12:08:36.423Z,6.67
2022-09-06T12:09:45.472Z,6.47
2022-09-06T12:11:01.554Z,8.95
2022-09-06T12:12:06.180Z,6.72
2022-09-06T12:13:34.045Z,11.05
2022-09-06T12:15:00.908Z,6.93
2022-09-06T12:16:05.297Z,6.40
2022-09-06T12:17:12.805Z,7.00
2022-09-06T12:18:52.965Z,6.13
2022-09-06T12:20:05.329Z,6.97
2022-09-06T12:21:07.654Z,7.70
2022-09-06T12:22:33.911Z,6.15
2022-09-06T12:23:44.849Z,5.80
2022-09-06T12:24:49.831Z,5.93
2022-09-06T12:25:55.001Z,9.77
2022-09-06T12:27:19.936Z,6.63
2022-09-06T12:28:31.835Z,8.23
2022-09-06T12:29:36.972Z,8.05
2022-09-06T12:30:48.585Z,6.82
2022-09-06T12:32:04.764Z,8.13
2022-09-06T12:33:32.396Z,7.73
2022-09-06T12:34:37.039Z,7.18
2022-09-06T12:37:04.693Z,6.25
2022-09-06T12:38:15.987Z,6.60
2022-09-06T12:39:18.288Z,7.05
2022-09-06T12:40:23.088Z,5.72
2022-09-06T12:41:27.754Z,5.28
2022-09-06T12:42:35.573Z,6.90
2022-09-06T12:43:39.405Z,5.40
2022-09-06T12:44:47.671Z,7.10
2022-09-06T12:45:52.652Z,5.00
2022-09-06T12:46:55.047Z,7.85
2022-09-06T12:48:10.743Z,8.68
2022-09-06T12:49:17.869Z,4.93
2022-09-06T12:50:26.149Z,6.20
2022-09-06T12:51:28.458Z,5.70
2022-09-06T12:52:31.475Z,8.30
2022-09-06T12:53:35.089Z,5.07
2022-09-06T12:54:49.501Z,6.63
2022-09-06T12:56:04.554Z,5.47
2022-09-06T12:57:20.657Z,6.25
2022-09-06T12:58:28.864Z,7.35
2022-09-06T12:59:32.504Z,5.55
2022-09-06T13:00:42.790Z,7.35
2022-09-06T13:01:50.061Z,7.15
2022-09-06T13:03:20.114Z,7.63
2022-09-06T13:04:32.317Z,5.78
2022-09-06T13:05:35.711Z,7.15
2022-09-06T13:06:45.925Z,6.10
2022-09-06T13:07:53.728Z,6.17
2022-09-06T13:08:58.349Z,6.30
2022-09-06T13:10:02.013Z,6.30
2022-09-06T13:11:11.358Z,7.10
2022-09-06T13:12:40.685Z,6.88
2022-09-06T13:13:48.996Z,6.45
2022-09-06T13:14:55.033Z,4.72
2022-09-06T13:15:58.771Z,7.68
2022-09-06T13:17:01.272Z,5.55
2022-09-06T13:18:22.689Z,7.57
2022-09-06T13:19:37.298Z,6.57
2022-09-06T13:20:39.556Z,5.53
2022-09-06T13:21:44.048Z,6.45
2022-09-06T13:22:49.557Z,6.10
2022-09-06T13:23:52.290Z,6.32
2022-09-06T13:24:56.645Z,7.35
2022-09-06T13:25:58.922Z,7.82
2022-09-06T13:27:01.330Z,6.53
2022-09-06T13:28:03.727Z,6.05
2022-09-06T13:29:18.024Z,6.05
2022-09-06T13:30:42.512Z,6.47
2022-09-06T13:31:55.701Z,7.47
2022-09-06T13:32:58.064Z,14.05
2022-09-06T13:34:00.427Z,6.03
2022-09-06T13:35:03.822Z,4.85
2022-09-06T13:36:16.320Z,6.55
2022-09-06T13:37:19.714Z,5.53
2022-09-06T13:38:40.819Z,9.35
2022-09-06T13:39:46.815Z,8.32
2022-09-06T13:41:11.873Z,5.90
2022-09-06T13:42:36.034Z,8.33
2022-09-06T13:43:47.721Z,7.20
2022-09-06T13:44:51.182Z,6.07
2022-09-06T13:46:07.916Z,6.88
2022-09-06T13:47:10.147Z,8.38
2022-09-06T13:48:28.325Z,8.23
2022-09-06T13:49:31.914Z,6.93
2022-09-06T13:50:34.279Z,8.27
2022-09-06T13:51:38.959Z,5.93
2022-09-06T13:52:41.705Z,7.70
2022-09-06T13:53:43.991Z,9.03
2022-09-06T13:54:46.228Z,6.45
2022-09-06T13:55:48.409Z,7.07
2022-09-06T13:56:51.279Z,7.57
2022-09-06T13:57:53.427Z,8.27
2022-09-06T13:58:55.614Z,5.28
2022-09-06T13:59:58.029Z,6.78
2022-09-06T14:01:00.795Z,7.70
2022-09-06T14:02:07.795Z,5.00
2022-09-06T14:03:13.330Z,7.32
2022-09-06T14:04:20.278Z,6.20
2022-09-06T14:05:22.597Z,7.70
2022-09-06T14:06:24.833Z,6.10
2022-09-06T14:07:26.962Z,5.82
2022-09-06T14:08:43.690Z,6.75
2022-09-06T14:09:54.897Z,6.07
2022-09-06T14:10:57.222Z,8.30
2022-09-06T14:12:00.841Z,7.55
2022-09-06T14:13:03.028Z,8.95
2022-09-06T14:14:05.567Z,7.00
2022-09-06T14:15:08.131Z,8.40
2022-09-06T14:16:10.981Z,7.45
2022-09-06T14:17:13.413Z,7.22
2022-09-06T14:18:18.444Z,7.63
2022-09-06T14:19:21.157Z,6.93
2022-09-06T14:20:23.411Z,8.45
2022-09-06T14:21:25.660Z,7.85
2022-09-06T14:22:28.197Z,5.65
2022-09-06T14:23:30.348Z,10.43
2022-09-06T14:24:32.769Z,7.63
2022-09-06T14:25:36.114Z,8.00
2022-09-06T14:26:38.935Z,7.82
2022-09-06T14:27:41.134Z,7.10
2022-09-06T14:28:43.516Z,7.22
2022-09-06T14:29:45.694Z,6.55
2022-09-06T14:30:47.972Z,6.68
2022-09-06T14:31:50.208Z,8.38
2022-09-06T14:32:52.425Z,8.43
2022-09-06T14:33:56.506Z,10.40
2022-09-06T14:34:58.651Z,8.10
2022-09-06T14:36:04.652Z,5.97
2022-09-06T14:37:09.296Z,8.35
2022-09-06T14:38:15.570Z,8.10
2022-09-06T14:39:17.806Z,8.32
2022-09-06T14:40:20.097Z,7.55
2022-09-06T14:41:22.276Z,6.57
2022-09-06T14:42:24.788Z,7.53
2022-09-06T14:43:26.906Z,6.70
2022-09-06T14:44:29.085Z,6.60
2022-09-06T14:45:33.511Z,7.65
2022-09-06T14:46:36.213Z,7.50
2022-09-06T14:47:38.441Z,5.38
2022-09-06T14:48:42.713Z,6.80
2022-09-06T14:49:44.965Z,10.73
2022-09-06T14:50:47.250Z,10.80
2022-09-06T14:51:49.468Z,7.47
2022-09-06T14:52:51.712Z,7.32
2022-09-06T14:53:57.424Z,6.75
2022-09-06T14:54:59.523Z,6.45
2022-09-06T14:56:03.331Z,7.88
2022-09-06T14:57:06.066Z,7.60
2022-09-06T14:58:09.262Z,6.55
2022-09-06T14:59:12.393Z,7.57
2022-09-06T15:00:14.851Z,7.20
2022-09-06T15:01:22.966Z,8.55
2022-09-06T15:02:26.537Z,7.45
2022-09-06T15:03:28.808Z,9.93
2022-09-06T15:04:31.083Z,6.65
2022-09-06T15:05:33.261Z,7.97
2022-09-06T15:06:37.145Z,7.93
2022-09-06T15:07:39.443Z,9.03
2022-09-06T15:08:42.007Z,6.53
2022-09-06T15:09:44.204Z,10.27
2022-09-06T15:10:54.459Z,8.85
2022-09-06T15:11:57.041Z,7.95
2022-09-06T15:12:59.217Z,6.93
2022-09-06T15:14:04.167Z,7.47
2022-09-06T15:15:06.725Z,8.10
2022-09-06T15:16:10.658Z,5.72
2022-09-06T15:17:13.378Z,6.85
2022-09-06T15:18:15.569Z,7.03
2022-09-06T15:19:17.784Z,6.32
2022-09-06T15:20:20.016Z,6.57
2022-09-06T15:21:23.257Z,9.48
2022-09-06T15:22:25.469Z,9.02
2022-09-06T15:23:28.057Z,6.35
2022-09-06T15:24:30.563Z,8.88
2022-09-06T15:25:32.723Z,7.63
2022-09-06T15:26:35.480Z,10.57
2022-09-06T15:27:37.850Z,8.60
2022-09-06T15:28:41.931Z,7.97
2022-09-06T15:29:45.024Z,6.47
2022-09-06T15:30:49.287Z,8.10
2022-09-06T15:31:53.483Z,9.27
2022-09-06T15:32:55.739Z,7.32
2022-09-06T15:33:59.032Z,9.75
2022-09-06T15:35:04.485Z,5.90
2022-09-06T15:36:08.580Z,6.18
2022-09-06T15:37:10.984Z,6.57
2022-09-06T15:38:13.952Z,8.18
2022-09-06T15:39:16.392Z,6.83
2022-09-06T15:40:21.831Z,7.78
2022-09-06T15:41:26.363Z,7.55
2022-09-06T15:42:29.388Z,6.43
2022-09-06T15:43:33.623Z,8.60
2022-09-06T15:44:35.998Z,5.97
2022-09-06T15:45:49.576Z,6.40
2022-09-06T15:46:54.269Z,7.13
2022-09-06T15:47:57.026Z,8.13
2022-09-06T15:48:59.213Z,7.30
2022-09-06T15:50:02.370Z,6.57
2022-09-06T15:51:04.616Z,7.00
2022-09-06T15:52:08.025Z,9.55
2022-09-06T15:53:10.466Z,6.65
2022-09-06T15:54:14.312Z,9.52
2022-09-06T15:55:38.727Z,7.55
2022-09-06T15:56:43.832Z,9.48
2022-09-06T15:57:46.887Z,9.15
2022-09-06T15:58:49.079Z,7.43
2022-09-06T15:59:51.280Z,9.23
2022-09-06T16:01:01.505Z,8.27
2022-09-06T16:02:04.073Z,6.63
2022-09-06T16:03:06.408Z,7.75
2022-09-06T16:04:08.791Z,6.47
2022-09-06T16:05:11.068Z,7.97
2022-09-06T16:06:27.784Z,7.00
2022-09-06T16:07:31.206Z,8.20
2022-09-06T16:08:35.234Z,6.35
2022-09-06T16:09:38.764Z,8.60
2022-09-06T16:10:41.061Z,6.78
2022-09-06T16:11:43.725Z,7.37
2022-09-06T16:12:49.983Z,8.25
2022-09-06T16:13:53.249Z,5.60
2022-09-06T16:14:56.083Z,9.20
2022-09-06T16:16:00.250Z,8.85
2022-09-06T16:17:02.446Z,8.77
2022-09-06T16:18:05.641Z,7.13
2022-09-06T16:19:08.330Z,6.95
2022-09-06T16:20:10.714Z,7.85
2022-09-06T16:21:24.687Z,11.65
2022-09-06T16:22:28.464Z,10.00
2022-09-06T16:23:31.251Z,12.40
2022-09-06T16:24:33.759Z,9.30
2022-09-06T16:25:36.208Z,8.45
2022-09-06T16:26:41.399Z,10.25
2022-09-06T16:27:44.124Z,7.93
2022-09-06T16:28:49.109Z,14.57
2022-09-06T16:29:52.312Z,11.80
2022-09-06T16:30:55.666Z,9.70
2022-09-06T16:32:00.044Z,7.82
2022-09-06T16:33:02.279Z,7.13
2022-09-06T16:34:04.504Z,10.63
2022-09-06T16:35:07.024Z,7.78
2022-09-06T16:36:09.938Z,10.32
2022-09-06T16:37:12.062Z,9.18
2022-09-06T16:38:14.504Z,9.52
2022-09-06T16:39:16.711Z,11.65
2022-09-06T16:40:18.982Z,10.40
2022-09-06T16:41:25.422Z,11.20
2022-09-06T16:42:27.608Z,9.90
2022-09-06T16:43:33.775Z,8.10
2022-09-06T16:44:35.942Z,10.30
2022-09-06T16:45:38.418Z,9.40
2022-09-06T16:46:41.866Z,10.60
2022-09-06T16:47:44.093Z,8.80
2022-09-06T16:48:54.114Z,11.90
2022-09-06T16:49:56.352Z,11.07
2022-09-06T16:51:07.701Z,14.18
2022-09-06T16:52:09.819Z,8.40
2022-09-06T16:53:11.907Z,8.10
2022-09-06T16:54:15.612Z,14.10
2022-09-06T16:55:17.838Z,9.00
2022-09-06T16:56:25.850Z,9.73
2022-09-06T16:57:27.936Z,9.70
2022-09-06T16:58:30.454Z,11.75
2022-09-06T16:59:32.642Z,10.63
2022-09-06T17:00:34.865Z,11.48
2022-09-06T17:01:41.457Z,11.43
2022-09-06T17:02:47.137Z,12.30
2022-09-06T17:03:50.930Z,9.80
2022-09-06T17:04:53.993Z,10.87
2022-09-06T17:05:56.182Z,11.80
2022-09-06T17:06:58.379Z,9.85
2022-09-06T17:08:00.971Z,10.30
2022-09-06T17:09:03.255Z,10.23
2022-09-06T17:10:06.806Z,9.40
2022-09-06T17:11:16.185Z,8.52
2022-09-06T17:12:18.303Z,9.35
2022-09-06T17:13:20.493Z,12.02
2022-09-06T17:14:22.687Z,9.98
2022-09-06T17:15:24.938Z,13.67
2022-09-06T17:16:45.631Z,10.25
2022-09-06T17:17:47.846Z,9.65
2022-09-06T17:18:53.762Z,9.23
2022-09-06T17:19:56.015Z,10.25
2022-09-06T17:21:00.902Z,10.35
2022-09-06T17:22:03.786Z,10.35
2022-09-06T17:23:05.990Z,9.30
2022-09-06T17:24:09.149Z,9.07
2022-09-06T17:25:12.360Z,9.15
2022-09-06T17:26:14.599Z,11.93
2022-09-06T17:27:16.967Z,10.65
2022-09-06T17:28:19.319Z,10.52
2022-09-06T17:29:21.783Z,10.85
2022-09-06T17:30:23.883Z,9.15
2022-09-06T17:31:26.395Z,10.55
2022-09-06T17:32:28.602Z,8.65
2022-09-06T17:33:32.095Z,10.07
2022-09-06T17:34:34.279Z,11.10
2022-09-06T17:35:36.535Z,11.98
2022-09-06T17:36:38.954Z,12.97
2022-09-06T17:37:41.118Z,12.52
2022-09-06T17:38:44.265Z,12.70
2022-09-06T17:39:46.467Z,10.90
2022-09-06T17:41:00.135Z,11.80
2022-09-06T17:42:02.334Z,10.32
2022-09-06T17:43:05.857Z,10.32
2022-09-06T17:44:12.831Z,10.98
2022-09-06T17:45:14.978Z,9.60
2022-09-06T17:46:17.468Z,11.32
2022-09-06T17:47:19.711Z,8.27
2022-09-06T17:48:22.130Z,9.40
2022-09-06T17:49:24.722Z,9.52
2022-09-06T17:50:29.681Z,9.70
2022-09-06T17:51:33.407Z,10.60
2022-09-06T17:52:37.242Z,11.75
2022-09-06T17:53:39.875Z,8.88